CST,Max TemperatureF,Mean TemperatureF,Min TemperatureF,Max Dew PointF,MeanDew PointF,Min DewpointF,Max Humidity, Mean Humidity, Min Humidity, Max Sea Level PressureIn, Mean Sea Level PressureIn, Min Sea Level PressureIn, Max VisibilityMiles, Mean VisibilityMiles, Min VisibilityMiles, Max Wind SpeedMPH, Mean Wind SpeedMPH, Max Gust SpeedMPH,PrecipitationIn, CloudCover, Events, WindDirDegrees
2012-12-1,57,48,39,54,47,34,100,87,73,30.02,29.88,29.80,9,5,0,13,7,17,0.00,7,Fog,173
2012-12-2,49,44,39,48,44,40,100,96,92,30.04,29.96,29.88,0,0,0,12,4,15,0.00,,Fog,186
2012-12-3,68,57,45,58,49,33,100,76,52,30.02,29.80,29.70,10,8,0,28,12,33,0.00,3,Fog,192
2012-12-4,62,47,32,30,26,21,72,46,20,30.33,30.22,30.06,10,10,8,18,8,22,0.00,0,,305
2012-12-5,51,40,28,34,29,22,75,61,46,30.37,30.23,30.02,10,10,10,18,9,26,0.00,0,,128
2012-12-6,50,46,41,39,35,31,83,72,60,30.01,29.95,29.89,10,10,8,15,8,21,T,4,Rain,171
2012-12-7,42,38,34,37,33,30,85,78,70,29.97,29.93,29.88,10,10,8,13,7,16,0.02,8,Rain,27
2012-12-8,41,34,26,34,30,24,92,79,65,30.04,29.98,29.92,10,8,5,10,6,15,T,4,,69
2012-12-9,40,29,18,36,29,10,92,80,67,30.03,29.90,29.83,10,6,2,29,13,35,0.04,7,Rain,327
2012-12-10,29,22,15,12,8,6,74,57,39,30.08,30.03,30.00,10,10,10,24,12,32,0.00,4,,269
2012-12-11,42,29,15,18,14,6,73,55,36,30.11,30.04,29.98,10,10,10,18,9,22,0.00,1,,225
2012-12-12,50,37,23,19,15,10,74,48,21,30.18,30.13,30.08,10,10,10,26,13,35,0.00,0,,187
2012-12-13,51,41,31,21,18,14,53,41,29,30.12,30.10,30.07,10,10,10,9,10,10,0.00,0,,195
2012-12-14,51,41,30,37,28,21,76,59,42,30.10,29.96,29.73,10,10,10,20,10,25,T,4,,163
2012-12-15,51,45,38,46,42,35,96,88,80,29.70,29.58,29.49,10,8,3,22,13,31,0.45,8,Rain,220
2012-12-16,38,34,30,36,32,28,92,87,82,29.81,29.75,29.68,9,6,3,16,5,21,0.00,8,,328
2012-12-17,34,30,26,30,27,24,92,87,82,29.78,29.75,29.69,8,5,2,12,4,13,0.00,5,,227
2012-12-18,46,37,27,32,29,25,100,79,58,29.91,29.69,29.53,10,6,0,31,12,37,0.00,3,Fog,228
2012-12-19,35,31,27,34,30,25,96,89,82,29.95,29.78,29.54,6,4,2,24,10,36,0.66,6,Rain-Thunderstorm,61
2012-12-20,33,25,16,31,21,9,92,83,73,30.17,29.72,29.42,10,3,0,43,25,52,0.35,6,Fog-Rain-Snow,334
2012-12-21,29,20,11,14,10,4,73,62,50,30.37,30.30,30.19,10,10,10,18,7,24,0.00,0,,294
2012-12-22,38,29,19,24,18,11,81,68,54,30.26,30.06,29.95,10,10,10,14,7,17,0.00,0,,182
2012-12-23,30,21,12,19,15,9,88,76,63,30.05,30.00,29.97,10,7,5,15,8,18,0.00,0,,20
2012-12-24,20,16,12,16,11,7,96,82,67,30.26,30.07,29.94,10,6,2,22,13,28,T,5,Snow,339
2012-12-25,16,11,5,7,2,-1,83,71,59,30.45,30.35,30.25,10,10,10,22,13,28,0.00,0,,11
2012-12-26,23,13,3,12,6,-1,88,75,62,30.33,30.26,30.16,10,10,10,16,8,21,0.00,1,,1
2012-12-27,26,17,8,20,14,5,92,80,68,30.23,30.11,29.99,10,9,6,14,6,20,0.00,6,,82
2012-12-28,29,25,21,22,20,17,92,84,75,30.06,29.97,29.91,10,5,2,15,6,20,0.02,8,Snow,320
2012-12-29,27,21,14,16,13,10,88,76,63,30.28,30.19,30.05,10,7,2,18,11,22,T,5,Snow,284
2012-12-30,40,28,16,24,19,13,84,66,48,30.32,30.20,30.07,10,10,10,22,11,29,0.00,0,,199
2012-12-31,35,25,15,24,15,7,78,69,59,30.25,30.17,30.09,10,9,2,16,9,21,0.01,7,Snow,356